createdAt,value
2022-10-21T00:01:40.753Z,7.70
2022-10-21T00:04:07.669Z,9.10
2022-10-21T00:06:34.458Z,7.72
2022-10-21T00:09:01.116Z,7.75
2022-10-21T00:11:27.819Z,7.38
2022-10-21T00:13:54.462Z,8.00
2022-10-21T00:16:21.059Z,8.38
2022-10-21T00:18:48.482Z,8.27
2022-10-21T00:21:21.326Z,7.80
2022-10-21T00:23:49.777Z,8.73
2022-10-21T00:26:17.802Z,8.50
2022-10-21T00:28:44.401Z,8.30
2022-10-21T00:31:13.479Z,6.90
2022-10-21T00:33:40.330Z,8.95
2022-10-21T00:36:07.826Z,9.55
2022-10-21T00:38:35.748Z,8.90
2022-10-21T00:41:02.756Z,6.38
2022-10-21T00:43:29.517Z,8.32
2022-10-21T00:46:03.362Z,6.78
2022-10-21T00:48:54.090Z,8.35
2022-10-21T00:51:21.238Z,8.82
2022-10-21T00:53:49.359Z,8.48
2022-10-21T00:56:24.289Z,8.23
2022-10-21T00:58:53.428Z,8.27
2022-10-21T01:01:21.619Z,7.95
2022-10-21T01:03:49.813Z,8.95
2022-10-21T01:06:19.774Z,7.68
2022-10-21T01:08:46.637Z,7.32
2022-10-21T01:11:16.856Z,8.75
2022-10-21T01:14:01.197Z,8.25
2022-10-21T01:16:48.308Z,8.88
2022-10-21T01:19:45.453Z,7.80
2022-10-21T01:22:33.292Z,8.07
2022-10-21T01:25:18.600Z,7.57
2022-10-21T01:27:51.144Z,7.70
2022-10-21T01:30:37.812Z,9.10
2022-10-21T01:33:36.782Z,8.85
2022-10-21T01:36:24.888Z,8.05
2022-10-21T01:39:09.624Z,8.32
2022-10-21T01:41:48.234Z,7.65
2022-10-21T01:44:26.752Z,8.05
2022-10-21T01:47:00.597Z,8.70
2022-10-21T01:49:36.834Z,7.72
2022-10-21T01:52:04.971Z,7.68
2022-10-21T01:54:36.372Z,7.53
2022-10-21T01:57:04.482Z,6.72
2022-10-21T01:59:32.735Z,7.53
2022-10-21T02:02:02.817Z,7.32
2022-10-21T02:04:32.631Z,7.35
2022-10-21T02:06:59.264Z,7.40
2022-10-21T02:09:25.998Z,7.30
2022-10-21T02:11:56.489Z,8.07
2022-10-21T02:14:32.256Z,7.43
2022-10-21T02:17:00.242Z,7.47
2022-10-21T02:19:28.070Z,8.18
2022-10-21T02:21:58.560Z,7.43
2022-10-21T02:24:47.956Z,6.88
2022-10-21T02:27:14.574Z,7.32
2022-10-21T02:29:43.006Z,8.30
2022-10-21T02:32:30.551Z,7.50
2022-10-21T02:35:06.021Z,7.28
2022-10-21T02:37:46.906Z,7.35
2022-10-21T02:40:22.385Z,8.45
2022-10-21T02:42:57.061Z,6.68
2022-10-21T02:45:23.917Z,7.05
2022-10-21T02:47:50.973Z,6.57
2022-10-21T02:50:17.738Z,6.63
2022-10-21T02:52:44.345Z,6.70
2022-10-21T02:55:10.969Z,6.63
2022-10-21T02:57:37.838Z,7.85
2022-10-21T03:00:06.162Z,7.57
2022-10-21T03:02:32.921Z,6.57
2022-10-21T03:04:59.538Z,7.28
2022-10-21T03:07:26.147Z,6.47
2022-10-21T03:09:52.763Z,7.00
2022-10-21T03:12:19.420Z,7.68
2022-10-21T03:14:45.992Z,7.43
2022-10-21T03:17:12.574Z,6.80
2022-10-21T03:19:39.151Z,6.28
2022-10-21T03:22:05.761Z,7.28
2022-10-21T03:24:32.328Z,6.90
2022-10-21T03:26:58.913Z,7.38
2022-10-21T03:29:25.540Z,7.20
2022-10-21T03:31:52.321Z,7.38
2022-10-21T03:34:18.956Z,7.18
2022-10-21T03:36:45.544Z,6.72
2022-10-21T03:39:12.584Z,7.32
2022-10-21T03:41:39.611Z,6.57
2022-10-21T03:44:06.353Z,6.80
2022-10-21T03:46:33.043Z,7.03
2022-10-21T03:49:04.453Z,6.13
2022-10-21T03:51:33.381Z,6.97
2022-10-21T03:53:59.978Z,6.25
2022-10-21T03:56:26.548Z,6.47
2022-10-21T03:58:57.831Z,6.65
2022-10-21T04:01:25.865Z,6.50
2022-10-21T04:03:52.502Z,6.07
2022-10-21T04:06:19.241Z,5.70
2022-10-21T04:08:45.912Z,5.80
2022-10-21T04:11:12.536Z,5.80
2022-10-21T04:13:39.131Z,6.13
2022-10-21T04:16:08.428Z,5.32
2022-10-21T04:18:35.155Z,5.55
2022-10-21T04:21:01.848Z,5.65
2022-10-21T04:23:28.473Z,5.28
2022-10-21T04:25:55.058Z,5.78
2022-10-21T04:28:21.811Z,5.20
2022-10-21T04:30:50.700Z,5.80
2022-10-21T04:33:17.315Z,5.40
2022-10-21T04:35:44.031Z,4.82
2022-10-21T04:38:10.632Z,5.38
2022-10-21T04:40:37.379Z,5.10
2022-10-21T04:43:04.225Z,4.90
2022-10-21T04:45:30.861Z,4.78
2022-10-21T04:47:57.468Z,4.97
2022-10-21T04:50:24.139Z,4.90
2022-10-21T04:52:50.815Z,4.95
2022-10-21T04:55:17.549Z,5.07
2022-10-21T04:57:44.143Z,4.85
2022-10-21T05:00:11.357Z,5.03
2022-10-21T05:02:38.190Z,4.75
2022-10-21T05:05:05.389Z,4.70
2022-10-21T05:07:32.008Z,4.63
2022-10-21T05:09:58.608Z,4.75
2022-10-21T05:12:25.255Z,4.65
2022-10-21T05:14:51.849Z,4.82
2022-10-21T05:17:18.440Z,4.60
2022-10-21T05:19:45.005Z,4.45
2022-10-21T05:22:12.527Z,5.00
2022-10-21T05:24:39.114Z,4.72
2022-10-21T05:27:05.723Z,4.97
2022-10-21T05:29:32.265Z,5.05
2022-10-21T05:31:58.915Z,5.05
2022-10-21T05:34:25.580Z,5.20
2022-10-21T05:36:52.235Z,5.05
2022-10-21T05:39:18.901Z,4.93
2022-10-21T05:41:47.855Z,5.00
2022-10-21T05:44:15.069Z,5.05
2022-10-21T05:46:41.703Z,5.03
2022-10-21T05:49:08.595Z,5.43
2022-10-21T05:51:35.218Z,5.53
2022-10-21T05:54:03.832Z,5.47
2022-10-21T05:56:30.441Z,4.88
2022-10-21T05:58:57.046Z,5.03
2022-10-21T06:01:23.788Z,5.00
2022-10-21T06:03:50.555Z,4.55
2022-10-21T06:06:17.394Z,5.40
2022-10-21T06:08:44.123Z,4.75
2022-10-21T06:11:14.812Z,4.75
2022-10-21T06:13:42.131Z,4.47
2022-10-21T06:16:10.327Z,4.82
2022-10-21T06:18:37.922Z,4.30
2022-10-21T06:21:05.337Z,5.00
2022-10-21T06:23:32.253Z,4.60
2022-10-21T06:26:01.700Z,4.40
2022-10-21T06:28:30.561Z,4.35
2022-10-21T06:30:57.265Z,4.47
2022-10-21T06:33:26.852Z,4.10
2022-10-21T06:35:55.062Z,4.15
2022-10-21T06:38:22.225Z,4.03
2022-10-21T06:40:48.935Z,4.18
2022-10-21T06:43:16.162Z,4.45
2022-10-21T06:45:42.919Z,4.35
2022-10-21T06:48:09.577Z,4.68
2022-10-21T06:50:37.769Z,4.32
2022-10-21T06:53:04.506Z,4.25
2022-10-21T06:55:31.133Z,5.30
2022-10-21T06:57:59.385Z,4.93
2022-10-21T07:00:26.578Z,3.92
2022-10-21T07:02:53.211Z,4.07
2022-10-21T07:05:19.909Z,5.57
2022-10-21T07:07:46.505Z,4.00
2022-10-21T07:10:13.323Z,4.45
2022-10-21T07:12:40.117Z,4.22
2022-10-21T07:15:07.128Z,3.80
2022-10-21T07:17:33.724Z,3.70
2022-10-21T07:20:00.548Z,4.38
2022-10-21T07:22:27.165Z,3.70
2022-10-21T07:24:53.845Z,4.18
2022-10-21T07:27:20.573Z,5.20
2022-10-21T07:29:47.354Z,4.63
2022-10-21T07:32:14.085Z,4.60
2022-10-21T07:34:40.841Z,4.10
2022-10-21T07:37:07.593Z,5.18
2022-10-21T07:39:35.078Z,4.50
2022-10-21T07:42:01.805Z,4.68
2022-10-21T07:44:28.489Z,4.65
2022-10-21T07:46:55.579Z,4.13
2022-10-21T07:49:23.005Z,4.13
2022-10-21T07:51:53.402Z,4.15
2022-10-21T07:54:20.221Z,3.83
2022-10-21T07:56:49.405Z,3.83
2022-10-21T07:59:18.781Z,4.82
2022-10-21T08:01:47.353Z,3.95
2022-10-21T08:04:18.340Z,3.80
2022-10-21T08:06:46.380Z,3.60
2022-10-21T08:09:13.944Z,3.58
2022-10-21T08:11:41.456Z,3.70
2022-10-21T08:14:09.215Z,4.03
2022-10-21T08:16:36.668Z,3.60
2022-10-21T08:19:04.753Z,4.00
2022-10-21T08:21:31.447Z,3.78
2022-10-21T08:24:01.016Z,3.88
2022-10-21T08:26:27.837Z,3.92
2022-10-21T08:28:54.518Z,3.85
2022-10-21T08:31:22.401Z,4.35
2022-10-21T08:33:49.580Z,3.45
2022-10-21T08:36:24.996Z,3.88
2022-10-21T08:38:52.692Z,4.38
2022-10-21T08:41:31.289Z,3.70
2022-10-21T08:44:06.559Z,3.38
2022-10-21T08:46:42.069Z,3.80
2022-10-21T08:49:29.897Z,4.13
2022-10-21T08:52:06.120Z,4.78
2022-10-21T08:54:56.774Z,3.95
2022-10-21T08:57:23.425Z,4.10
2022-10-21T08:59:50.219Z,4.45
2022-10-21T09:02:32.697Z,3.70
2022-10-21T09:05:08.252Z,4.20
2022-10-21T09:08:14.129Z,4.00
2022-10-21T09:10:58.640Z,4.72
2022-10-21T09:13:39.854Z,4.28
2022-10-21T09:16:34.031Z,4.85
2022-10-21T09:19:09.762Z,4.32
2022-10-21T09:22:05.884Z,4.25
2022-10-21T09:24:48.568Z,4.15
2022-10-21T09:27:19.424Z,4.05
2022-10-21T09:30:02.585Z,4.10
2022-10-21T09:32:37.955Z,4.45
2022-10-21T09:35:37.717Z,4.13
2022-10-21T09:38:26.757Z,4.25
2022-10-21T09:41:01.286Z,5.00
2022-10-21T09:43:27.965Z,4.80
2022-10-21T09:45:54.875Z,4.72
2022-10-21T09:48:49.237Z,5.07
2022-10-21T09:51:31.663Z,4.90
2022-10-21T09:54:11.458Z,5.00
2022-10-21T09:56:46.631Z,4.82
2022-10-21T09:59:16.284Z,5.20
2022-10-21T10:01:44.269Z,5.65
2022-10-21T10:04:12.600Z,5.03
2022-10-21T10:06:42.081Z,4.97
2022-10-21T10:09:23.984Z,5.20
2022-10-21T10:11:55.603Z,5.25
2022-10-21T10:14:33.289Z,4.78
2022-10-21T10:17:19.646Z,5.43
2022-10-21T10:20:04.226Z,4.30
2022-10-21T10:22:37.802Z,4.55
2022-10-21T10:25:18.007Z,4.78
2022-10-21T10:28:09.883Z,5.22
2022-10-21T10:30:38.597Z,4.85
2022-10-21T10:33:20.085Z,5.40
2022-10-21T10:35:53.399Z,4.85
2022-10-21T10:38:27.153Z,5.13
2022-10-21T10:40:56.387Z,4.70
2022-10-21T10:43:32.012Z,5.40
2022-10-21T10:46:01.291Z,5.07
2022-10-21T10:48:45.111Z,5.28
2022-10-21T10:51:27.555Z,5.10
2022-10-21T10:54:24.812Z,4.43
2022-10-21T10:57:00.982Z,4.53
2022-10-21T10:59:35.769Z,5.05
2022-10-21T11:02:12.027Z,4.22
2022-10-21T11:04:59.277Z,4.03
2022-10-21T11:07:28.833Z,4.53
2022-10-21T11:10:04.605Z,4.68
2022-10-21T11:12:32.316Z,4.32
2022-10-21T11:14:59.786Z,4.47
2022-10-21T11:17:40.953Z,5.05
2022-10-21T11:20:27.081Z,5.13
2022-10-21T11:26:03.340Z,4.88
2022-10-21T11:28:44.136Z,3.88
2022-10-21T11:31:29.592Z,3.88
2022-10-21T11:34:29.944Z,3.70
2022-10-21T11:37:07.844Z,3.75
2022-10-21T11:39:52.587Z,3.70
2022-10-21T11:42:37.608Z,3.50
2022-10-21T11:45:29.074Z,3.70
2022-10-21T11:48:32.860Z,3.70
2022-10-21T11:51:25.075Z,3.45
2022-10-21T11:53:59.632Z,4.00
2022-10-21T11:56:54.431Z,3.10
2022-10-21T11:59:29.022Z,2.65
2022-10-21T12:02:10.836Z,2.45
2022-10-21T12:05:08.785Z,1.92
2022-10-21T12:08:06.233Z,1.85
2022-10-21T12:11:03.584Z,1.70
2022-10-21T12:13:39.812Z,1.55
2022-10-21T12:16:09.874Z,1.25
2022-10-21T12:18:47.239Z,1.30
2022-10-21T12:21:22.447Z,1.60
2022-10-21T12:23:54.431Z,1.92
2022-10-21T12:26:28.148Z,1.80
2022-10-21T12:29:26.845Z,1.30
2022-10-21T12:32:02.824Z,1.45
2022-10-21T12:34:29.877Z,1.00
2022-10-21T12:36:56.540Z,1.50
2022-10-21T12:39:35.367Z,1.98
2022-10-21T12:42:25.104Z,1.70
2022-10-21T12:44:52.815Z,1.42
2022-10-21T12:47:24.917Z,0.90
2022-10-21T12:50:29.466Z,0.98
2022-10-21T12:53:22.713Z,1.50
2022-10-21T12:55:53.369Z,1.27
2022-10-21T12:58:39.208Z,1.08
2022-10-21T13:01:27.213Z,1.30
2022-10-21T13:03:55.676Z,0.80
2022-10-21T13:06:53.274Z,0.75
2022-10-21T13:09:39.723Z,0.90
2022-10-21T13:12:09.391Z,1.15
2022-10-21T13:14:53.466Z,1.23
2022-10-21T13:17:23.008Z,1.30
2022-10-21T13:20:17.114Z,0.95
2022-10-21T13:23:01.809Z,1.10
2022-10-21T13:25:35.134Z,1.00
2022-10-21T13:28:04.711Z,1.00
2022-10-21T13:30:35.252Z,0.90
2022-10-21T13:33:16.548Z,0.90
2022-10-21T13:35:47.434Z,0.77
2022-10-21T13:38:30.057Z,0.70
2022-10-21T13:40:59.040Z,0.90
2022-10-21T13:43:37.961Z,1.23
2022-10-21T13:46:07.878Z,0.98
2022-10-21T13:48:44.209Z,1.60
2022-10-21T13:51:25.170Z,1.38
2022-10-21T13:54:00.827Z,1.30
2022-10-21T13:56:32.759Z,0.90
2022-10-21T13:59:00.323Z,0.93
2022-10-21T14:01:30.256Z,1.00
2022-10-21T14:04:13.513Z,1.20
2022-10-21T14:06:45.637Z,0.90
2022-10-21T14:09:27.141Z,0.93
2022-10-21T14:11:57.821Z,1.00
2022-10-21T14:14:26.935Z,1.10
2022-10-21T14:16:57.732Z,1.10
2022-10-21T14:19:31.356Z,1.13
2022-10-21T14:22:00.179Z,0.82
2022-10-21T14:24:49.703Z,1.00
2022-10-21T14:27:20.074Z,0.82
2022-10-21T14:29:47.720Z,1.02
2022-10-21T14:32:17.289Z,1.02
2022-10-21T14:35:08.259Z,0.90
2022-10-21T14:37:51.188Z,0.88
2022-10-21T14:40:21.354Z,0.90
2022-10-21T14:42:52.455Z,1.30
2022-10-21T14:45:29.129Z,0.73
2022-10-21T14:48:08.792Z,0.90
2022-10-21T14:50:38.589Z,1.00
2022-10-21T14:53:18.820Z,1.10
2022-10-21T14:55:48.209Z,1.00
2022-10-21T14:58:22.370Z,1.17
2022-10-21T15:01:11.216Z,1.20
2022-10-21T15:03:40.778Z,1.13
2022-10-21T15:06:15.210Z,1.10
2022-10-21T15:08:44.373Z,1.10
2022-10-21T15:11:18.754Z,1.25
2022-10-21T15:14:16.432Z,1.40
2022-10-21T15:16:49.109Z,1.20
2022-10-21T15:19:20.193Z,1.17
2022-10-21T15:21:54.127Z,1.52
2022-10-21T15:24:46.702Z,1.45
2022-10-21T15:27:26.522Z,0.98
2022-10-21T15:29:53.739Z,1.63
2022-10-21T15:32:24.484Z,1.00
2022-10-21T15:34:53.872Z,0.93
2022-10-21T15:37:20.531Z,1.58
2022-10-21T15:39:48.485Z,1.17
2022-10-21T15:42:17.520Z,1.10
2022-10-21T15:44:48.926Z,1.20
2022-10-21T15:47:16.010Z,0.95
2022-10-21T15:49:45.123Z,1.33
2022-10-21T15:52:11.997Z,1.27
2022-10-21T15:54:38.560Z,1.40
2022-10-21T15:57:21.809Z,1.70
2022-10-21T15:59:48.579Z,1.73
2022-10-21T16:02:17.527Z,1.40
2022-10-21T16:04:45.301Z,1.45
2022-10-21T16:07:29.161Z,1.17
2022-10-21T16:09:56.550Z,1.52
2022-10-21T16:12:23.244Z,1.42
2022-10-21T16:14:50.053Z,2.08
2022-10-21T16:17:16.832Z,2.05
2022-10-21T16:19:43.565Z,1.75
2022-10-21T16:22:18.128Z,1.90
2022-10-21T16:24:44.702Z,1.95
2022-10-21T16:27:26.348Z,2.30
2022-10-21T16:30:02.076Z,2.72
2022-10-21T16:32:28.616Z,2.33
2022-10-21T16:34:55.236Z,2.33
2022-10-21T16:37:25.129Z,2.60
2022-10-21T16:39:52.131Z,3.22
2022-10-21T16:42:20.136Z,3.00
2022-10-21T16:44:46.919Z,2.70
2022-10-21T16:47:19.019Z,3.08
2022-10-21T16:49:46.333Z,3.58
2022-10-21T16:52:13.551Z,3.80
2022-10-21T16:54:40.152Z,3.50
2022-10-21T16:57:07.338Z,3.60
2022-10-21T16:59:34.029Z,3.63
2022-10-21T17:02:01.292Z,3.72
2022-10-21T17:04:28.113Z,3.50
2022-10-21T17:06:57.310Z,3.97
2022-10-21T17:09:26.585Z,4.10
2022-10-21T17:11:53.179Z,4.82
2022-10-21T17:14:20.426Z,5.20
2022-10-21T17:16:47.282Z,4.97
2022-10-21T17:19:14.842Z,5.20
2022-10-21T17:21:41.734Z,5.40
2022-10-21T17:24:13.263Z,4.30
2022-10-21T17:26:41.236Z,4.60
2022-10-21T17:29:10.490Z,4.22
2022-10-21T17:31:38.106Z,3.83
2022-10-21T17:34:09.065Z,4.22
2022-10-21T17:36:36.155Z,3.92
2022-10-21T17:39:04.041Z,4.10
2022-10-21T17:41:31.033Z,4.10
2022-10-21T17:43:57.806Z,4.07
2022-10-21T17:46:25.277Z,4.10
2022-10-21T17:48:56.257Z,3.75
2022-10-21T17:51:24.634Z,3.88
2022-10-21T17:53:52.593Z,4.28
2022-10-21T17:56:19.905Z,3.90
2022-10-21T17:58:52.542Z,4.15
2022-10-21T18:01:19.480Z,4.70
2022-10-21T18:03:46.104Z,4.47
2022-10-21T18:06:15.010Z,4.63
2022-10-21T18:08:41.966Z,4.65
2022-10-21T18:11:14.167Z,4.32
2022-10-21T18:13:41.893Z,4.30
2022-10-21T18:16:14.673Z,4.55
2022-10-21T18:21:16.431Z,4.95
2022-10-21T18:23:45.567Z,6.68
2022-10-21T18:26:15.179Z,6.57
2022-10-21T18:28:42.177Z,7.63
2022-10-21T18:31:08.831Z,8.15
2022-10-21T18:33:35.458Z,6.18
2022-10-21T18:36:10.273Z,5.70
2022-10-21T18:38:36.945Z,6.45
2022-10-21T18:41:19.000Z,6.15
2022-10-21T18:43:49.400Z,5.88
2022-10-21T18:46:16.039Z,6.55
2022-10-21T18:48:42.834Z,6.05
2022-10-21T18:51:11.179Z,5.43
2022-10-21T18:53:38.896Z,4.65
2022-10-21T18:56:07.208Z,4.97
2022-10-21T18:58:35.122Z,5.00
2022-10-21T19:01:02.033Z,4.95
2022-10-21T19:03:28.694Z,4.78
2022-10-21T19:05:55.528Z,5.13
2022-10-21T19:08:23.201Z,3.83
2022-10-21T19:10:50.463Z,3.58
2022-10-21T19:13:17.114Z,4.95
2022-10-21T19:15:43.764Z,4.22
2022-10-21T19:18:12.414Z,4.57
2022-10-21T19:20:40.189Z,4.93
2022-10-21T19:23:07.576Z,4.80
2022-10-21T19:25:34.256Z,4.80
2022-10-21T19:28:00.981Z,4.43
2022-10-21T19:30:27.648Z,5.00
2022-10-21T19:32:54.322Z,4.65
2022-10-21T19:35:20.894Z,4.53
2022-10-21T19:37:47.512Z,4.22
2022-10-21T19:40:14.120Z,4.68
2022-10-21T19:42:41.727Z,4.35
2022-10-21T19:45:10.410Z,4.93
2022-10-21T19:47:37.805Z,5.82
2022-10-21T19:50:04.843Z,5.38
2022-10-21T19:52:31.500Z,4.93
2022-10-21T19:54:58.091Z,5.03
2022-10-21T19:57:24.679Z,4.80
2022-10-21T19:59:51.295Z,4.85
2022-10-21T20:02:17.997Z,4.72
2022-10-21T20:04:44.699Z,5.22
2022-10-21T20:07:11.298Z,5.45
2022-10-21T20:09:38.993Z,5.50
2022-10-21T20:12:05.901Z,5.43
2022-10-21T20:14:32.561Z,5.32
2022-10-21T20:16:59.127Z,4.63
2022-10-21T20:19:25.776Z,6.05
2022-10-21T20:21:52.380Z,5.57
2022-10-21T20:24:18.996Z,4.38
2022-10-21T20:26:48.936Z,4.18
2022-10-21T20:29:15.546Z,4.97
2022-10-21T20:31:42.142Z,4.13
2022-10-21T20:34:14.389Z,4.28
2022-10-21T20:36:41.166Z,4.40
2022-10-21T20:39:07.771Z,4.63
2022-10-21T20:41:37.162Z,4.35
2022-10-21T20:44:05.927Z,4.22
2022-10-21T20:46:35.079Z,4.15
2022-10-21T20:49:03.984Z,4.18
2022-10-21T20:51:31.007Z,4.20
2022-10-21T20:53:59.948Z,4.70
2022-10-21T20:56:28.293Z,5.40
2022-10-21T20:58:55.383Z,5.45
2022-10-21T21:01:25.348Z,4.28
2022-10-21T21:03:56.552Z,5.60
2022-10-21T21:06:23.420Z,5.10
2022-10-21T21:09:14.681Z,5.45
2022-10-21T21:11:37.153Z,5.45
2022-10-21T21:14:03.778Z,5.25
2022-10-21T21:16:30.782Z,5.53
2022-10-21T21:19:02.840Z,5.18
2022-10-21T21:21:31.197Z,5.05
2022-10-21T21:23:58.676Z,5.40
2022-10-21T21:26:37.737Z,5.70
2022-10-21T21:29:06.518Z,6.28
2022-10-21T21:31:34.254Z,5.97
2022-10-21T21:34:00.926Z,5.90
2022-10-21T21:36:27.940Z,6.40
2022-10-21T21:38:54.682Z,5.85
2022-10-21T21:41:22.920Z,5.25
2022-10-21T21:43:50.861Z,5.25
2022-10-21T21:46:25.212Z,5.35
2022-10-21T21:49:04.080Z,4.80
2022-10-21T21:51:33.676Z,4.95
2022-10-21T21:54:00.299Z,5.10
2022-10-21T21:56:27.923Z,4.97
2022-10-21T21:58:55.947Z,4.78
2022-10-21T22:01:25.140Z,5.10
2022-10-21T22:03:52.400Z,4.55
2022-10-21T22:06:23.356Z,4.53
2022-10-21T22:08:50.882Z,4.13
2022-10-21T22:11:20.635Z,3.88
2022-10-21T22:13:47.388Z,4.25
2022-10-21T22:16:15.904Z,4.60
2022-10-21T22:18:43.159Z,5.22
2022-10-21T22:21:12.711Z,5.78
2022-10-21T22:23:40.428Z,5.47
2022-10-21T22:26:08.368Z,5.63
2022-10-21T22:28:35.350Z,6.03
2022-10-21T22:31:15.354Z,4.80
2022-10-21T22:36:09.622Z,5.47
2022-10-21T22:38:36.535Z,4.80
2022-10-21T22:41:07.175Z,4.63
2022-10-21T22:43:36.540Z,4.53
2022-10-21T22:46:09.659Z,5.00
2022-10-21T22:48:48.551Z,5.70
2022-10-21T22:51:15.228Z,4.30
2022-10-21T22:53:41.899Z,4.40
2022-10-21T22:56:08.595Z,4.07
2022-10-21T22:58:35.278Z,3.95
2022-10-21T23:01:06.907Z,4.28
2022-10-21T23:03:33.512Z,4.38
2022-10-21T23:06:00.132Z,4.10
2022-10-21T23:08:26.881Z,4.15
2022-10-21T23:10:53.971Z,4.28
2022-10-21T23:13:20.607Z,4.75
2022-10-21T23:15:47.945Z,3.75
2022-10-21T23:18:14.858Z,3.72
2022-10-21T23:20:41.546Z,3.42
2022-10-21T23:23:08.181Z,3.65
2022-10-21T23:25:35.247Z,3.40
2022-10-21T23:28:02.020Z,3.70
2022-10-21T23:30:28.643Z,3.58
2022-10-21T23:32:55.297Z,3.22
2022-10-21T23:35:21.978Z,3.40
2022-10-21T23:37:48.696Z,3.60
2022-10-21T23:40:15.315Z,3.25
2022-10-21T23:42:42.935Z,3.47
2022-10-21T23:45:11.312Z,3.28
2022-10-21T23:47:39.126Z,3.67
2022-10-21T23:50:07.255Z,3.08
2022-10-21T23:52:33.881Z,3.50
2022-10-21T23:55:00.551Z,3.20
2022-10-21T23:57:27.343Z,3.25
2022-10-21T23:59:53.981Z,3.20
